Time;durP1;ratioP1;P1;durP2;ratioP2;P2;SDS_P1;SDS_P2;PMS_P1;PMS_P2;Temp;Humidity;BMP_temperature;BMP_pressure;BME280_temperature;BME280_humidity;BME280_pressure;Samples;Min_cycle;Max_cycle;Signal;HPM_P1;HPM_P2
2021/10/15 00:00:58;;;;;;;7.88;3.28;;;;;;;8.30;67.46;100547.94;4935122;29;20095;-83
2021/10/15 00:03:25;;;;;;;4.20;2.85;;;;;;;8.16;67.75;100545.84;4914784;29;20060;-82
2021/10/15 00:05:52;;;;;;;8.77;3.03;;;;;;;8.14;68.44;100545.88;4916032;29;20048;-82
2021/10/15 00:08:19;;;;;;;4.03;2.78;;;;;;;8.11;68.60;100542.56;4916316;29;20076;-84
2021/10/15 00:10:46;;;;;;;4.57;3.65;;;;;;;8.11;68.68;100535.63;4916210;29;20060;-83
2021/10/15 00:13:12;;;;;;;6.00;3.55;;;;;;;8.13;68.23;100541.59;4916242;29;20083;-82
2021/10/15 00:15:39;;;;;;;4.78;3.47;;;;;;;8.21;68.42;100537.91;4916025;29;20048;-82
2021/10/15 00:18:06;;;;;;;4.85;3.20;;;;;;;8.27;67.67;100541.13;4916260;29;20551;-85
2021/10/15 00:20:33;;;;;;;6.57;3.75;;;;;;;8.21;68.04;100533.56;4916285;29;20092;-83
2021/10/15 00:22:59;;;;;;;4.63;3.10;;;;;;;8.25;67.67;100535.13;4915962;29;20056;-82
2021/10/15 00:25:26;;;;;;;4.50;3.80;;;;;;;8.25;67.47;100529.94;4916330;29;20118;-82
2021/10/15 00:27:53;;;;;;;7.18;3.80;;;;;;;8.12;68.24;100529.53;4915644;29;20052;-83
2021/10/15 00:30:20;;;;;;;4.85;3.50;;;;;;;8.12;68.44;100531.28;4916073;29;20107;-83
2021/10/15 00:32:46;;;;;;;5.43;3.08;;;;;;;8.14;68.30;100526.88;4915534;29;20122;-83
2021/10/15 00:35:13;;;;;;;5.95;3.20;;;;;;;7.98;69.05;100517.94;4915902;29;20051;-83
2021/10/15 00:37:44;;;;;;;5.15;3.60;;;;;;;8.03;68.61;100521.22;4915555;29;20467;-82
2021/10/15 00:40:11;;;;;;;5.50;4.25;;;;;;;8.05;68.67;100524.63;4915923;29;20055;-82
2021/10/15 00:42:38;;;;;;;5.20;3.15;;;;;;;8.08;68.67;100521.91;4915713;29;20040;-84
2021/10/15 00:45:05;;;;;;;4.15;3.17;;;;;;;8.04;69.04;100525.50;4915748;29;20064;-83
2021/10/15 00:47:32;;;;;;;4.68;3.15;;;;;;;7.99;69.12;100522.22;4915754;29;20048;-86
2021/10/15 00:49:59;;;;;;;6.00;3.67;;;;;;;8.08;68.42;100511.50;4915372;29;20083;-86
2021/10/15 00:52:29;;;;;;;11.27;3.80;;;;;;;8.12;68.46;100519.13;4915930;29;20044;-84
2021/10/15 00:54:56;;;;;;;3.70;3.13;;;;;;;8.13;67.80;100510.44;4915795;29;20447;-85
2021/10/15 00:57:23;;;;;;;4.38;3.47;;;;;;;8.18;67.57;100512.88;4915915;29;20048;-84
2021/10/15 00:59:51;;;;;;;4.30;3.22;;;;;;;8.29;67.36;100513.34;4915338;29;20091;-84
2021/10/15 01:02:18;;;;;;;4.55;3.42;;;;;;;8.28;67.26;100513.41;4917754;29;20045;-84
2021/10/15 01:04:46;;;;;;;4.75;3.78;;;;;;;8.25;67.21;100513.50;4934174;29;20470;-84
2021/10/15 01:07:13;;;;;;;5.35;3.85;;;;;;;8.26;67.02;100510.03;4934523;29;20198;-84
2021/10/15 01:09:41;;;;;;;4.70;3.45;;;;;;;8.31;66.84;100508.94;4934206;29;20099;-83
2021/10/15 01:12:09;;;;;;;5.10;3.30;;;;;;;8.39;65.81;100506.09;4934394;29;20499;-83
2021/10/15 01:14:35;;;;;;;5.28;3.30;;;;;;;8.37;66.13;100503.56;4934335;29;20068;-85
2021/10/15 01:17:04;;;;;;;6.15;3.95;;;;;;;8.37;66.53;100497.53;4933656;29;20043;-84
2021/10/15 01:19:31;;;;;;;6.45;3.63;;;;;;;8.37;66.69;100500.97;4934478;29;20171;-85
2021/10/15 01:22:00;;;;;;;6.70;3.40;;;;;;;8.23;66.96;100490.19;4934298;29;20052;-83
2021/10/15 01:24:27;;;;;;;7.10;3.60;;;;;;;8.14;67.60;100487.91;4934560;29;20059;-83
2021/10/15 01:26:54;;;;;;;6.80;3.70;;;;;;;7.98;69.07;100490.22;4933942;29;20048;-83
2021/10/15 01:29:21;;;;;;;9.10;3.90;;;;;;;7.85;69.90;100479.44;4934568;29;20048;-84
2021/10/15 01:31:48;;;;;;;8.90;5.20;;;;;;;7.89;69.42;100482.78;4933921;29;20048;-84
2021/10/15 01:34:15;;;;;;;8.13;5.07;;;;;;;7.80;70.37;100473.56;4934217;29;20048;-83
2021/10/15 01:36:41;;;;;;;9.85;5.68;;;;;;;7.71;70.82;100473.00;4934485;29;20044;-88
2021/10/15 01:39:08;;;;;;;9.27;5.75;;;;;;;7.59;71.17;100472.53;4934156;29;20048;-84
2021/10/15 01:41:35;;;;;;;10.45;4.55;;;;;;;7.52;71.15;100472.81;4932799;29;20091;-86
2021/10/15 01:44:02;;;;;;;6.20;4.50;;;;;;;7.56;71.05;100466.59;4937824;29;20098;-88
2021/10/15 01:46:28;;;;;;;6.15;4.88;;;;;;;7.50;72.01;100470.25;4938285;29;20075;-88
2021/10/15 01:48:55;;;;;;;6.93;4.32;;;;;;;7.52;70.88;100463.28;4920718;29;20036;-87
2021/10/15 01:51:22;;;;;;;5.40;4.22;;;;;;;7.60;69.00;100456.06;4937769;29;20067;-86
2021/10/15 01:53:48;;;;;;;5.07;3.72;;;;;;;7.47;70.16;100459.16;4937583;29;20044;-85
2021/10/15 01:56:16;;;;;;;5.53;4.13;;;;;;;7.46;69.20;100452.28;4937709;29;20055;-85
2021/10/15 01:58:44;;;;;;;5.82;3.88;;;;;;;7.44;69.56;100456.66;4937186;29;20107;-85
2021/10/15 02:01:10;;;;;;;9.48;4.20;;;;;;;7.38;69.84;100447.31;4937971;29;20069;-84
2021/10/15 02:03:37;;;;;;;6.20;3.90;;;;;;;7.37;70.45;100445.63;4937496;29;20131;-82
2021/10/15 02:06:05;;;;;;;5.95;4.20;;;;;;;7.37;69.95;100448.22;4937574;29;20067;-83
2021/10/15 02:08:31;;;;;;;5.05;4.13;;;;;;;7.32;70.83;100440.59;4920328;29;20110;-83
2021/10/15 02:10:58;;;;;;;4.25;3.38;;;;;;;7.47;69.60;100441.00;4920719;29;20127;-84
2021/10/15 02:13:25;;;;;;;6.00;4.38;;;;;;;7.35;70.43;100437.91;4937496;29;20058;-83
2021/10/15 02:15:52;;;;;;;4.50;3.85;;;;;;;7.33;70.04;100433.66;4937399;29;20451;-84
2021/10/15 02:18:19;;;;;;;8.88;4.78;;;;;;;7.43;69.82;100434.22;4937451;29;20082;-83
2021/10/15 02:20:45;;;;;;;3.67;3.28;;;;;;;7.37;69.73;100429.22;4937163;29;20112;-84
2021/10/15 02:23:12;;;;;;;5.05;3.97;;;;;;;7.32;71.46;100429.38;4937367;29;20044;-83
2021/10/15 02:25:39;;;;;;;4.82;3.53;;;;;;;7.30;71.32;100424.25;4936957;29;20067;-84
2021/10/15 02:28:06;;;;;;;3.85;3.15;;;;;;;7.31;71.25;100420.75;4937297;29;20502;-85
2021/10/15 02:30:33;;;;;;;4.60;3.42;;;;;;;7.18;72.26;100419.47;4937131;29;20040;-85
2021/10/15 02:33:02;;;;;;;5.60;3.63;;;;;;;7.07;73.32;100422.41;4937308;29;20047;-85
2021/10/15 02:35:29;;;;;;;5.18;4.03;;;;;;;7.04;73.68;100411.31;4937388;29;20123;-85
2021/10/15 02:38:00;;;;;;;5.90;3.75;;;;;;;7.04;73.35;100414.75;4936731;29;20494;-85
2021/10/15 02:40:31;;;;;;;4.72;3.70;;;;;;;7.05;73.77;100413.00;4937093;29;20055;-85
2021/10/15 02:42:58;;;;;;;10.50;3.67;;;;;;;7.12;72.71;100411.88;4936539;29;20078;-86
2021/10/15 02:45:24;;;;;;;8.88;3.88;;;;;;;7.30;71.47;100407.84;4936956;29;20155;-86
2021/10/15 02:47:51;;;;;;;5.25;3.10;;;;;;;7.43;70.08;100413.47;4936323;29;20431;-86
2021/10/15 02:50:18;;;;;;;6.97;2.78;;;;;;;7.69;67.61;100410.81;4936752;29;20048;-84
2021/10/15 02:52:45;;;;;;;4.25;2.97;;;;;;;7.65;66.85;100408.38;4936466;29;20036;-85
2021/10/15 02:55:12;;;;;;;9.52;2.67;;;;;;;7.73;66.31;100409.81;4936749;29;20483;-86
2021/10/15 02:57:38;;;;;;;3.42;2.53;;;;;;;7.72;66.54;100407.25;4936667;29;20039;-86
2021/10/15 03:00:06;;;;;;;4.47;3.10;;;;;;;7.86;65.44;100413.63;4936948;29;20095;-86
2021/10/15 03:02:33;;;;;;;7.03;3.28;;;;;;;7.70;66.45;100404.72;4936470;29;20055;-86
2021/10/15 03:05:00;;;;;;;5.95;2.65;;;;;;;7.53;66.68;100405.31;4935507;29;20047;-86
2021/10/15 03:07:27;;;;;;;4.15;2.85;;;;;;;7.41;68.89;100405.75;4935692;29;20045;-86
2021/10/15 03:09:54;;;;;;;4.47;2.78;;;;;;;7.22;70.88;100410.69;4935384;29;20063;-85
2021/10/15 03:12:24;;;;;;;5.60;2.60;;;;;;;7.16;71.24;100410.06;4935659;29;20051;-85
2021/10/15 03:14:51;;;;;;;6.88;4.00;;;;;;;6.98;71.71;100412.34;4935337;29;20051;-84
2021/10/15 03:17:20;;;;;;;7.18;3.03;;;;;;;6.96;72.49;100416.72;4935587;29;20482;-84
2021/10/15 03:19:47;;;;;;;9.20;4.72;;;;;;;6.94;71.98;100404.72;4934675;29;20491;-85
2021/10/15 03:22:15;;;;;;;7.93;4.18;;;;;;;6.88;72.31;100412.72;4935405;29;20170;-85
2021/10/15 03:24:41;;;;;;;16.17;4.13;;;;;;;6.67;73.39;100412.47;4935496;29;20127;-85
2021/10/15 03:27:08;;;;;;;16.73;4.07;;;;;;;6.56;74.40;100415.41;4935162;29;20048;-85
2021/10/15 03:29:36;;;;;;;5.90;3.83;;;;;;;6.53;74.49;100417.22;4935138;29;20529;-85
2021/10/15 03:32:04;;;;;;;5.05;3.70;;;;;;;6.45;72.92;100411.47;4935035;29;20048;-85
2021/10/15 03:34:30;;;;;;;4.95;3.97;;;;;;;6.35;73.38;100413.47;4935244;29;20052;-85
2021/10/15 03:36:57;;;;;;;6.53;3.80;;;;;;;6.35;73.39;100425.56;4934925;29;20040;-85
2021/10/15 03:39:24;;;;;;;6.68;4.07;;;;;;;6.20;74.30;100419.09;4935054;29;20384;-85
2021/10/15 03:41:51;;;;;;;6.07;4.15;;;;;;;6.21;74.27;100419.03;4934981;29;20154;-85
2021/10/15 03:44:18;;;;;;;3.95;3.42;;;;;;;6.22;74.62;100419.88;4935236;29;20044;-86
2021/10/15 03:46:45;;;;;;;6.65;4.85;;;;;;;6.24;74.83;100429.31;4934954;29;20050;-86
2021/10/15 03:49:12;;;;;;;4.80;3.85;;;;;;;6.09;74.32;100424.59;4934972;29;20055;-86
2021/10/15 03:51:41;;;;;;;7.60;4.07;;;;;;;6.12;75.54;100416.72;4934936;29;20407;-85
2021/10/15 03:54:08;;;;;;;7.93;5.07;;;;;;;6.04;75.85;100413.50;4934767;29;20051;-86
2021/10/15 03:56:35;;;;;;;5.32;4.10;;;;;;;6.04;76.62;100416.09;4934763;29;20161;-86
2021/10/15 03:59:02;;;;;;;11.98;5.20;;;;;;;5.99;77.19;100411.06;4934876;29;20435;-86
2021/10/15 04:01:29;;;;;;;6.35;4.50;;;;;;;6.00;77.75;100414.50;4934834;29;20047;-85
2021/10/15 04:03:56;;;;;;;8.05;4.25;;;;;;;6.00;77.77;100411.91;4892752;29;1236980;-86
2021/10/15 04:06:23;;;;;;;5.85;4.35;;;;;;;5.98;76.04;100408.53;4934844;29;20428;-85
2021/10/15 04:08:50;;;;;;;5.65;3.95;;;;;;;6.02;76.56;100408.38;4935336;29;20071;-87
2021/10/15 04:11:17;;;;;;;6.03;4.30;;;;;;;5.93;76.44;100410.38;4935757;29;20103;-86
2021/10/15 04:13:45;;;;;;;9.15;5.20;;;;;;;5.92;75.78;100406.09;4935180;29;20051;-86
2021/10/15 04:16:12;;;;;;;4.63;3.75;;;;;;;5.92;76.03;100403.53;4935580;29;20115;-86
2021/10/15 04:18:39;;;;;;;9.40;4.32;;;;;;;5.92;76.95;100403.53;4935327;29;20122;-86
2021/10/15 04:21:06;;;;;;;8.00;4.72;;;;;;;5.88;77.77;100405.31;4935240;29;20044;-88
2021/10/15 04:23:33;;;;;;;8.05;4.90;;;;;;;5.83;78.75;100408.91;4937791;29;20395;-86
2021/10/15 04:26:01;;;;;;;6.53;5.32;;;;;;;5.79;79.59;100406.41;4918411;29;20062;-83
2021/10/15 04:28:28;;;;;;;5.50;4.40;;;;;;;5.67;79.92;100401.56;4935318;29;20403;-85
2021/10/15 04:30:55;;;;;;;7.00;5.05;;;;;;;5.71;79.83;100402.34;4934642;29;20072;-84
2021/10/15 04:33:22;;;;;;;4.47;3.53;;;;;;;5.62;80.58;100392.25;4935060;29;20052;-84
2021/10/15 04:35:54;;;;;;;5.75;3.65;;;;;;;5.61;80.76;100399.16;4934978;29;20051;-84
2021/10/15 04:38:21;;;;;;;6.20;4.22;;;;;;;5.61;81.30;100391.41;4935080;29;20047;-84
2021/10/15 04:40:48;;;;;;;5.10;3.95;;;;;;;5.56;80.71;100390.66;4935132;29;20040;-85
2021/10/15 04:43:15;;;;;;;6.10;4.05;;;;;;;5.59;81.15;100389.72;4935509;29;20044;-85
2021/10/15 04:45:42;;;;;;;5.88;4.78;;;;;;;5.60;81.11;100389.72;4935102;29;20044;-85
2021/10/15 04:48:09;;;;;;;4.57;3.80;;;;;;;5.65;80.12;100393.03;4924551;29;20044;-85
2021/10/15 04:50:36;;;;;;;8.40;5.40;;;;;;;5.64;78.83;100393.88;4933616;29;20079;-85
2021/10/15 04:53:07;;;;;;;5.28;4.60;;;;;;;5.62;79.68;100400.00;4933313;29;20040;-84
2021/10/15 04:55:35;;;;;;;10.05;5.93;;;;;;;5.60;78.05;100394.88;4934747;29;20059;-85
2021/10/15 04:58:02;;;;;;;8.95;6.25;;;;;;;5.48;78.95;100390.88;4934347;29;20054;-84
2021/10/15 05:00:33;;;;;;;8.73;6.05;;;;;;;5.52;78.92;100394.22;4931306;29;20091;-81
2021/10/15 05:03:00;;;;;;;9.13;6.47;;;;;;;5.38;79.56;100401.50;4931530;29;20056;-78
2021/10/15 05:05:33;;;;;;;8.40;6.82;;;;;;;5.31;79.51;100387.88;4934244;29;20083;-82
2021/10/15 05:08:00;;;;;;;11.52;7.43;;;;;;;5.16;81.06;100391.69;4917044;29;20047;-79
2021/10/15 05:10:30;;;;;;;9.13;5.68;;;;;;;5.02;81.89;100388.63;4934087;29;20060;-82
2021/10/15 05:12:57;;;;;;;7.53;6.10;;;;;;;4.96;81.82;100383.63;4934439;29;20441;-81
2021/10/15 05:15:24;;;;;;;8.45;5.97;;;;;;;5.04;82.08;100388.59;4934117;29;20059;-86
2021/10/15 05:17:51;;;;;;;11.52;6.50;;;;;;;5.00;82.92;100388.66;4936362;29;20490;-83
2021/10/15 05:20:20;;;;;;;10.32;7.20;;;;;;;5.00;82.79;100390.41;4937118;29;20051;-83
2021/10/15 05:22:47;;;;;;;9.45;5.90;;;;;;;4.91;84.02;100382.88;4916861;29;20130;-85
2021/10/15 05:25:15;;;;;;;7.82;5.13;;;;;;;4.93;84.19;100386.28;4933010;29;20102;-82
2021/10/15 05:27:44;;;;;;;10.00;6.35;;;;;;;4.87;84.87;100394.19;4930771;29;20046;-86
2021/10/15 05:30:12;;;;;;;7.57;5.18;;;;;;;5.00;84.35;100387.81;4933773;29;20039;-84
2021/10/15 05:32:40;;;;;;;6.70;5.15;;;;;;;4.89;84.71;100382.06;4932441;29;20035;-86
2021/10/15 05:35:08;;;;;;;7.85;5.10;;;;;;;4.89;84.65;100384.66;4924648;29;20051;-88
2021/10/15 05:37:36;;;;;;;7.10;4.53;;;;;;;4.80;85.22;100385.75;4933537;29;20040;-85
2021/10/15 05:40:04;;;;;;;7.00;5.05;;;;;;;4.81;85.23;100391.75;4931621;29;20036;-87
2021/10/15 05:42:31;;;;;;;9.38;5.28;;;;;;;4.83;85.02;100395.97;4933724;29;20051;-90
2021/10/15 05:44:58;;;;;;;8.07;5.88;;;;;;;4.87;85.31;100383.84;4952497;29;20378;-85
2021/10/15 05:47:25;;;;;;;6.28;5.00;;;;;;;4.85;85.09;100390.78;4939952;29;20047;-85
2021/10/15 05:49:52;;;;;;;7.22;5.38;;;;;;;4.80;85.16;100395.22;4938953;29;20047;-86
2021/10/15 05:52:36;;;;;;;8.05;5.05;;;;;;;4.78;85.54;100399.56;4939578;29;20529;-86
2021/10/15 06:00:27;;;;;;;8.43;6.45;;;;;;;4.79;85.21;100394.34;4938030;29;20048;-90
2021/10/15 06:02:55;;;;;;;9.40;7.20;;;;;;;4.81;85.54;100389.16;4937532;29;20067;-89
2021/10/15 06:16:06;;;;;;;9.18;6.57;;;;;;;5.32;82.77;100376.66;4937076;29;20123;-84
2021/10/15 06:18:39;;;;;;;10.45;6.20;;;;;;;5.40;82.78;100374.72;4919760;29;20048;-84
2021/10/15 06:21:07;;;;;;;10.35;7.40;;;;;;;5.58;81.18;100368.19;4936349;29;20050;-85
2021/10/15 06:23:34;;;;;;;9.93;6.65;;;;;;;5.70;80.36;100369.59;4932534;29;20495;-89
2021/10/15 06:26:01;;;;;;;13.85;7.05;;;;;;;5.90;80.49;100375.06;4935595;29;20045;-90
2021/10/15 06:28:30;;;;;;;9.27;6.85;;;;;;;6.02;79.60;100377.34;4937316;29;20087;-86
2021/10/15 06:30:57;;;;;;;9.98;6.82;;;;;;;6.11;78.57;100370.19;4936795;29;20108;-86
2021/10/15 06:33:24;;;;;;;9.05;6.90;;;;;;;6.23;78.58;100372.41;4937414;29;20035;-87
2021/10/15 06:35:51;;;;;;;9.95;7.00;;;;;;;6.32;78.60;100373.88;4937206;29;20050;-86
2021/10/15 06:38:17;;;;;;;8.30;6.22;;;;;;;6.39;78.69;100375.38;4937187;29;20080;-85
2021/10/15 06:40:46;;;;;;;12.20;8.30;;;;;;;6.54;78.36;100374.91;4934582;29;20040;-87
2021/10/15 06:43:13;;;;;;;11.45;7.32;;;;;;;6.63;77.33;100379.78;4932623;29;20048;-86
2021/10/15 06:45:40;;;;;;;16.65;7.57;;;;;;;6.69;77.14;100377.00;4917330;29;20382;-80
2021/10/15 06:48:07;;;;;;;12.63;8.10;;;;;;;6.78;76.23;100381.91;4934455;29;20451;-80
2021/10/15 06:50:33;;;;;;;14.00;7.97;;;;;;;6.85;76.26;100376.50;4917228;29;20150;-78
2021/10/15 06:53:00;;;;;;;15.07;10.50;;;;;;;7.00;75.46;100381.19;4929000;29;20119;-79
2021/10/15 06:55:27;;;;;;;19.02;10.40;;;;;;;7.00;74.84;100376.00;4934211;29;20077;-78
2021/10/15 06:57:54;;;;;;;11.57;8.48;;;;;;;7.03;75.92;100374.19;4925180;29;20055;-80
2021/10/15 07:00:21;;;;;;;16.85;9.02;;;;;;;7.12;74.38;100375.59;4934485;29;20036;-77
2021/10/15 07:02:47;;;;;;;9.77;7.45;;;;;;;7.11;74.88;100371.31;4927983;29;20063;-76
2021/10/15 07:05:14;;;;;;;10.60;8.00;;;;;;;7.20;74.57;100371.00;4928584;29;20043;-78
2021/10/15 07:07:42;;;;;;;11.40;7.80;;;;;;;7.38;73.20;100363.50;4929707;29;20059;-78
2021/10/15 07:10:09;;;;;;;16.52;7.43;;;;;;;7.37;72.93;100370.44;4935101;29;20051;-79
2021/10/15 07:12:42;;;;;;;10.88;7.10;;;;;;;7.42;71.84;100365.09;4919166;29;20048;-81
2021/10/15 07:15:12;;;;;;;9.55;6.97;;;;;;;7.44;72.14;100371.06;4935894;29;20554;-77
2021/10/15 07:17:40;;;;;;;8.30;6.22;;;;;;;7.55;71.85;100364.59;4936015;29;20051;-77
2021/10/15 07:20:08;;;;;;;7.15;5.55;;;;;;;7.63;70.62;100368.66;4935956;29;20048;-78
2021/10/15 07:22:36;;;;;;;9.05;5.65;;;;;;;7.80;70.50;100372.34;4936101;29;20407;-84
2021/10/15 07:25:05;;;;;;;9.25;6.80;;;;;;;7.96;69.15;100369.19;4933881;29;20154;-86
2021/10/15 07:27:32;;;;;;;9.40;4.97;;;;;;;8.09;67.65;100370.41;4929045;29;20036;-88
2021/10/15 07:29:58;;;;;;;6.90;4.00;;;;;;;8.23;66.01;100381.13;4917970;29;20044;-84
2021/10/15 07:32:25;;;;;;;4.45;3.50;;;;;;;8.25;65.33;100371.50;4931205;29;20443;-86
2021/10/15 07:34:52;;;;;;;4.50;3.38;;;;;;;8.40;64.74;100368.34;4936840;29;20068;-85
2021/10/15 07:37:19;;;;;;;6.57;4.28;;;;;;;8.62;64.73;100368.34;4936862;29;20047;-85
2021/10/15 07:39:46;;;;;;;6.07;4.28;;;;;;;8.74;65.53;100364.44;4935902;29;20490;-83
2021/10/15 07:42:13;;;;;;;6.50;4.20;;;;;;;8.83;63.65;100361.44;4936359;29;20039;-84
2021/10/15 07:44:40;;;;;;;4.82;3.20;;;;;;;8.75;63.67;100362.69;4936164;29;20052;-82
2021/10/15 07:47:07;;;;;;;8.70;5.07;;;;;;;9.04;63.73;100364.91;4919386;29;20107;-83
2021/10/15 07:49:34;;;;;;;8.25;6.35;;;;;;;9.07;62.87;100366.56;4918663;29;20047;-82
2021/10/15 07:52:01;;;;;;;8.10;4.72;;;;;;;9.11;62.10;100365.53;4935581;29;20082;-83
2021/10/15 07:54:27;;;;;;;4.40;3.95;;;;;;;9.22;61.80;100360.72;4935929;29;20087;-83
2021/10/15 07:56:54;;;;;;;4.95;3.60;;;;;;;9.28;61.12;100355.25;4935621;29;20044;-86
2021/10/15 07:59:21;;;;;;;6.57;4.10;;;;;;;9.50;62.49;100357.75;4919228;29;20047;-86
2021/10/15 08:01:48;;;;;;;4.43;3.60;;;;;;;9.41;60.64;100356.38;4936404;29;20058;-85
2021/10/15 08:04:17;;;;;;;5.93;4.30;;;;;;;9.65;62.10;100357.09;4935365;29;20091;-85
2021/10/15 08:06:50;;;;;;;4.88;3.70;;;;;;;9.49;61.40;100356.06;4935957;29;20094;-85
2021/10/15 08:09:18;;;;;;;4.75;3.60;;;;;;;9.52;61.18;100349.88;4932688;29;20039;-87
2021/10/15 08:11:45;;;;;;;5.75;4.03;;;;;;;9.62;60.21;100361.56;4935368;29;20127;-85
2021/10/15 08:14:12;;;;;;;7.05;3.92;;;;;;;9.78;60.92;100356.53;4935045;29;20047;-86
2021/10/15 08:16:39;;;;;;;8.38;4.00;;;;;;;9.84;60.35;100346.66;4935279;29;20521;-81
2021/10/15 08:19:06;;;;;;;6.90;3.75;;;;;;;9.88;58.89;100353.44;4934915;29;20055;-82
2021/10/15 08:21:33;;;;;;;6.13;4.35;;;;;;;9.83;59.58;100350.19;4934240;29;20440;-83
2021/10/15 08:24:00;;;;;;;13.73;4.32;;;;;;;10.02;59.81;100347.63;4917098;29;20491;-81
2021/10/15 08:26:26;;;;;;;7.45;3.92;;;;;;;10.14;59.06;100349.63;4934427;29;20048;-82
2021/10/15 08:28:59;;;;;;;7.82;3.85;;;;;;;10.27;57.19;100351.69;4928613;29;20411;-81
2021/10/15 08:31:27;;;;;;;5.88;4.32;;;;;;;10.27;58.37;100352.53;4933424;29;20088;-83
2021/10/15 08:33:55;;;;;;;6.38;4.80;;;;;;;10.39;59.07;100354.59;4937939;29;20043;-83
2021/10/15 08:36:23;;;;;;;7.28;3.95;;;;;;;10.64;57.59;100350.78;4934241;29;20036;-84
2021/10/15 08:38:54;;;;;;;5.40;4.32;;;;;;;10.60;56.30;100357.06;4930874;29;20044;-84
2021/10/15 08:41:26;;;;;;;6.45;4.28;;;;;;;10.56;58.26;100356.38;4917894;29;20044;-84
2021/10/15 08:43:54;;;;;;;5.15;4.35;;;;;;;10.68;57.57;100349.72;4933622;29;20048;-84
2021/10/15 08:46:22;;;;;;;5.80;4.43;;;;;;;10.98;57.65;100347.38;4932960;29;20040;-84
2021/10/15 08:48:50;;;;;;;7.38;4.05;;;;;;;10.81;56.12;100344.75;4933006;29;20558;-86
2021/10/15 08:51:19;;;;;;;6.00;4.75;;;;;;;10.87;56.09;100344.47;4933572;29;20135;-85
2021/10/15 08:53:52;;;;;;;5.45;3.50;;;;;;;10.88;56.76;100346.16;4928117;29;20270;-85
2021/10/15 08:56:27;;;;;;;7.70;4.13;;;;;;;10.98;56.40;100342.16;4933354;29;20103;-88
2021/10/15 08:58:58;;;;;;;4.97;3.80;;;;;;;11.10;55.91;100345.91;4925050;29;20044;-87
2021/10/15 09:01:27;;;;;;;8.93;4.90;;;;;;;10.93;56.73;100345.00;4925483;29;20035;-88
2021/10/15 09:04:03;;;;;;;8.23;4.72;;;;;;;11.26;55.98;100349.44;4930387;29;20062;-85
2021/10/15 09:06:40;;;;;;;6.13;4.43;;;;;;;11.07;56.12;100346.91;4932660;29;20047;-86
2021/10/15 09:09:08;;;;;;;6.45;4.18;;;;;;;11.47;55.01;100348.31;4910525;29;20052;-87
2021/10/15 09:11:47;;;;;;;7.60;3.67;;;;;;;11.44;54.94;100340.63;4932954;29;20043;-86
2021/10/15 09:14:24;;;;;;;9.80;3.70;;;;;;;11.57;54.73;100340.84;4934141;29;20402;-85
2021/10/15 09:17:11;;;;;;;5.28;4.03;;;;;;;11.51;54.01;100330.75;4932511;29;20479;-86
2021/10/15 09:19:42;;;;;;;7.38;3.85;;;;;;;11.53;54.17;100332.34;4930608;29;20444;-86
2021/10/15 09:22:12;;;;;;;4.07;3.60;;;;;;;11.61;53.22;100326.72;4933412;29;20044;-84
2021/10/15 09:24:56;;;;;;;7.07;3.92;;;;;;;11.81;52.61;100328.25;4933947;29;20119;-86
2021/10/15 09:27:29;;;;;;;;;;;;;;;11.77;52.24;100318.88;4930938;29;20039;-88
2021/10/15 09:30:00;;;;;;;6.50;4.28;;;;;;;12.01;51.90;100312.38;4933100;29;19930;-87
2021/10/15 09:32:32;;;;;;;6.13;4.60;;;;;;;12.02;51.38;100314.06;4931215;29;20040;-87
2021/10/15 09:34:59;;;;;;;8.75;4.85;;;;;;;12.26;51.06;100313.66;4929932;29;20067;-88
2021/10/15 09:37:29;;;;;;;8.95;4.60;;;;;;;12.16;50.74;100318.53;4933763;29;20044;-85
2021/10/15 09:40:07;;;;;;;6.22;4.03;;;;;;;12.25;50.53;100312.81;4933835;29;20051;-86
2021/10/15 09:42:40;;;;;;;4.75;3.33;;;;;;;12.52;50.68;100304.34;4931390;29;20159;-83
2021/10/15 09:45:18;;;;;;;5.30;3.75;;;;;;;12.38;50.88;100302.50;4934518;29;20051;-81
2021/10/15 09:47:51;;;;;;;9.65;5.00;;;;;;;12.67;50.02;100305.22;4929663;29;20051;-87
2021/10/15 09:50:24;;;;;;;9.23;4.20;;;;;;;12.45;50.24;100302.97;4935259;29;20099;-86
2021/10/15 09:52:56;;;;;;;5.70;4.47;;;;;;;12.80;50.50;100303.59;4934849;29;20078;-85
2021/10/15 09:55:42;;;;;;;6.82;4.43;;;;;;;12.95;49.78;100300.06;4934723;29;20055;-84
2021/10/15 09:58:09;;;;;;;6.20;4.05;;;;;;;12.94;50.05;100287.91;4934472;29;20044;-85
2021/10/15 10:00:36;;;;;;;7.65;4.32;;;;;;;13.22;49.11;100287.16;4927808;29;20114;-86
2021/10/15 10:03:04;;;;;;;9.52;4.93;;;;;;;13.34;48.58;100288.19;4924319;29;20087;-91
2021/10/15 10:05:31;;;;;;;7.07;4.88;;;;;;;12.97;48.80;100285.13;4933915;29;20043;-87
2021/10/15 10:07:58;;;;;;;7.65;5.15;;;;;;;12.96;49.25;100288.66;4920670;29;20052;-85
2021/10/15 10:10:29;;;;;;;8.15;4.90;;;;;;;13.17;48.92;100283.09;4937804;29;20048;-85
2021/10/15 10:12:56;;;;;;;7.70;4.00;;;;;;;13.17;48.94;100280.47;4930872;29;20495;-87
2021/10/15 10:15:26;;;;;;;12.45;6.88;;;;;;;13.34;48.26;100275.94;4917438;29;20051;-88
2021/10/15 10:20:52;;;;;;;6.82;5.82;;;;;;;13.54;48.70;100269.47;4929177;29;20384;-85
2021/10/15 10:23:27;;;;;;;8.73;6.28;;;;;;;13.47;48.46;100268.16;4920780;29;20132;-84
2021/10/15 10:26:00;;;;;;;8.63;5.32;;;;;;;13.56;47.85;100259.72;4928511;29;20132;-84
2021/10/15 10:28:28;;;;;;;10.32;5.55;;;;;;;13.35;47.45;100261.06;4928565;29;20064;-84
2021/10/15 10:30:57;;;;;;;8.38;4.53;;;;;;;13.35;47.75;100256.66;4927980;29;20071;-85
2021/10/15 10:33:25;;;;;;;22.70;6.57;;;;;;;13.68;47.40;100249.41;4928002;29;20051;-86
2021/10/15 10:35:52;;;;;;;12.00;6.30;;;;;;;13.93;47.76;100240.84;4928669;29;20106;-88
2021/10/15 10:38:19;;;;;;;15.95;5.85;;;;;;;14.23;46.90;100238.06;4931508;29;20044;-88
2021/10/15 10:40:59;;;;;;;11.63;6.18;;;;;;;14.08;46.38;100224.16;4933878;29;20048;-87
2021/10/15 10:43:54;;;;;;;13.05;6.72;;;;;;;14.10;46.50;100225.72;4914736;29;20243;-87
2021/10/15 10:46:22;;;;;;;10.23;6.10;;;;;;;14.48;45.65;100219.75;4934330;29;20042;-86
2021/10/15 10:48:49;;;;;;;11.48;5.47;;;;;;;14.47;45.55;100223.34;4935584;29;20039;-87
2021/10/15 10:51:18;;;;;;;11.73;7.38;;;;;;;14.30;45.83;100223.59;4935618;29;20047;-87
2021/10/15 10:53:57;;;;;;;10.68;6.93;;;;;;;14.07;46.38;100214.63;4918334;29;20108;-87
2021/10/15 10:56:42;;;;;;;13.10;7.03;;;;;;;14.74;47.01;100219.81;4934346;29;20052;-85
2021/10/15 10:59:18;;;;;;;15.25;7.63;;;;;;;14.13;46.34;100217.66;4934742;29;20044;-87
2021/10/15 11:01:49;;;;;;;12.13;6.72;;;;;;;13.63;47.28;100206.03;4934253;29;20070;-88
2021/10/15 11:04:42;;;;;;;11.18;6.53;;;;;;;14.54;45.80;100201.03;4937670;29;20063;-86
2021/10/15 11:07:22;;;;;;;12.32;6.82;;;;;;;14.90;45.66;100194.19;4911051;29;20503;-86
2021/10/15 11:09:57;;;;;;;18.77;7.22;;;;;;;15.02;45.14;100192.50;4934837;29;20076;-86
2021/10/15 11:12:26;;;;;;;12.95;7.45;;;;;;;14.89;45.88;100187.28;4934254;29;20063;-86
2021/10/15 11:14:56;;;;;;;15.63;7.07;;;;;;;15.17;45.53;100181.78;4933848;29;20592;-85
2021/10/15 11:17:26;;;;;;;16.42;7.15;;;;;;;14.96;44.73;100179.81;4934889;29;20055;-86
2021/10/15 11:20:20;;;;;;;9.13;5.90;;;;;;;14.78;44.57;100172.28;4935760;29;20090;-86
2021/10/15 11:23:03;;;;;;;12.98;7.53;;;;;;;15.23;43.79;100163.91;4931993;29;20051;-89
2021/10/15 11:25:33;;;;;;;10.27;6.93;;;;;;;14.87;43.63;100158.53;4936281;29;20416;-89
2021/10/15 11:28:09;;;;;;;10.10;6.32;;;;;;;15.19;43.49;100156.28;4936801;29;20043;-84
2021/10/15 11:30:39;;;;;;;11.25;5.93;;;;;;;15.08;43.83;100155.34;4929091;29;20047;-84
2021/10/15 11:33:08;;;;;;;16.58;5.75;;;;;;;15.27;42.88;100154.88;4928328;29;20044;-84
2021/10/15 11:35:37;;;;;;;13.95;5.97;;;;;;;14.93;43.67;100144.97;4932290;29;20048;-87
2021/10/15 11:38:27;;;;;;;14.85;7.60;;;;;;;14.69;43.39;100138.78;4926355;29;20127;-82
2021/10/15 11:56:29;;;;;;;11.77;5.53;;;;;;;15.35;43.20;100107.91;5171366;23;20094;-86
2021/10/15 11:58:58;;;;;;;7.25;4.75;;;;;;;15.84;41.84;100101.72;4947924;28;20055;-86
2021/10/15 12:01:27;;;;;;;8.07;4.82;;;;;;;15.59;40.21;100092.97;4957595;28;20043;-86
2021/10/15 12:03:58;;;;;;;9.63;4.82;;;;;;;15.80;40.30;100089.75;4957397;28;20051;-85
2021/10/15 12:06:39;;;;;;;7.88;5.50;;;;;;;16.22;40.02;100075.19;4958707;28;20035;-85
2021/10/15 12:09:10;;;;;;;10.52;5.03;;;;;;;15.93;40.17;100080.03;4955632;28;20509;-87
2021/10/15 12:11:38;;;;;;;11.65;6.07;;;;;;;16.16;39.04;100079.13;4961689;28;20043;-87